Time;durP1;ratioP1;P1;durP2;ratioP2;P2;SDS_P1;SDS_P2;PMS_P1;PMS_P2;Temp;Humidity;BMP_temperature;BMP_pressure;BME280_temperature;BME280_humidity;BME280_pressure;Samples;Min_cycle;Max_cycle;Signal;HPM_P1;HPM_P2
2022/08/09 00:01:36;;;;;;;6.80;3.67;;;;;;;16.76;100.00;98892.84;1762142;79;28146;-86
2022/08/09 00:04:10;;;;;;;5.67;2.90;;;;;;;16.77;100.00;98891.88;1766731;79;28007;-87
2022/08/09 00:06:36;;;;;;;6.05;3.17;;;;;;;16.76;100.00;98888.03;1767684;78;28063;-87
2022/08/09 00:09:02;;;;;;;3.98;2.55;;;;;;;16.69;100.00;98894.37;1761085;78;28136;-87
2022/08/09 00:11:29;;;;;;;3.50;2.55;;;;;;;16.58;100.00;98893.11;1761450;80;28081;-86
2022/08/09 00:13:55;;;;;;;7.50;2.85;;;;;;;16.48;100.00;98897.02;1754818;78;28149;-87
2022/08/09 00:16:22;;;;;;;6.25;2.83;;;;;;;16.58;100.00;98898.40;1704183;80;28264;-87
2022/08/09 00:18:48;;;;;;;6.58;2.87;;;;;;;16.62;100.00;98902.47;1725612;81;28092;-87
2022/08/09 00:21:14;;;;;;;5.72;2.85;;;;;;;16.69;100.00;98897.02;1749656;79;28147;-87
2022/08/09 00:23:40;;;;;;;3.60;2.55;;;;;;;16.66;100.00;98903.39;1743056;80;28102;-88
2022/08/09 00:26:07;;;;;;;5.47;3.00;;;;;;;16.65;100.00;98899.55;1753950;79;28122;-88
2022/08/09 00:28:35;;;;;;;6.70;2.95;;;;;;;16.63;100.00;98902.83;1721113;80;28176;-88
2022/08/09 00:31:03;;;;;;;7.05;3.17;;;;;;;16.61;100.00;98905.59;1727839;80;28087;-88
2022/08/09 00:33:52;;;;;;;6.00;2.90;;;;;;;16.63;100.00;98905.47;1740255;80;28220;-90
2022/08/09 00:36:19;;;;;;;6.60;2.98;;;;;;;16.58;100.00;98906.33;1747075;79;28129;-89
2022/08/09 00:38:45;;;;;;;7.58;3.22;;;;;;;16.59;100.00;98908.84;1739303;79;28162;-89
2022/08/09 00:41:12;;;;;;;7.87;2.92;;;;;;;16.53;100.00;98906.70;1746977;80;28167;-89
2022/08/09 00:43:39;;;;;;;6.97;3.47;;;;;;;16.47;100.00;98905.94;1749195;79;28025;-89
2022/08/09 00:46:08;;;;;;;5.60;3.10;;;;;;;16.48;100.00;98902.30;1787283;78;28092;-90
2022/08/09 00:48:35;;;;;;;10.03;3.30;;;;;;;16.52;100.00;98898.92;1754881;79;28122;-89
2022/08/09 00:51:03;;;;;;;7.28;3.98;;;;;;;16.56;100.00;98906.93;1765156;79;28121;-89
2022/08/09 00:53:30;;;;;;;6.95;3.83;;;;;;;16.59;100.00;98914.13;1770322;78;28023;-90
2022/08/09 00:55:56;;;;;;;6.33;3.27;;;;;;;16.59;100.00;98913.29;1765792;79;28055;-90
2022/08/09 00:58:22;;;;;;;6.67;3.00;;;;;;;16.63;100.00;98910.76;1762807;79;28067;-90
2022/08/09 01:00:52;;;;;;;6.62;3.55;;;;;;;16.63;100.00;98908.11;1750578;79;28119;-90
2022/08/09 01:03:47;;;;;;;7.45;3.17;;;;;;;16.62;100.00;98907.27;1761129;79;28274;-88
2022/08/09 01:06:33;;;;;;;6.10;3.17;;;;;;;16.61;100.00;98914.00;1771286;79;28102;-88
2022/08/09 01:09:03;;;;;;;6.12;3.42;;;;;;;16.59;100.00;98911.97;1754803;79;28079;-88
2022/08/09 01:11:42;;;;;;;5.33;3.22;;;;;;;16.52;100.00;98909.02;1758770;79;28231;-88
2022/08/09 01:14:18;;;;;;;7.12;3.47;;;;;;;16.46;100.00;98909.54;1772253;78;28099;-88
2022/08/09 01:16:46;;;;;;;5.15;2.90;;;;;;;16.44;100.00;98916.75;1749906;79;28015;-88
2022/08/09 01:19:15;;;;;;;7.25;3.50;;;;;;;16.42;100.00;98917.35;1758567;79;28068;-88
2022/08/09 01:21:45;;;;;;;6.03;3.30;;;;;;;16.47;100.00;98918.30;1752055;79;28016;-88
2022/08/09 01:24:38;;;;;;;8.05;3.00;;;;;;;16.49;100.00;98915.87;1766130;79;28088;-88
2022/08/09 01:27:07;;;;;;;5.22;3.50;;;;;;;16.55;100.00;98918.47;1759428;78;28098;-88
2022/08/09 01:29:43;;;;;;;9.18;3.58;;;;;;;16.59;100.00;98918.58;1732507;81;28226;-88
2022/08/09 01:32:13;;;;;;;5.65;3.20;;;;;;;16.62;100.00;98926.25;1723559;80;28128;-87
2022/08/09 01:34:43;;;;;;;5.65;3.30;;;;;;;16.66;100.00;98924.53;1757879;78;28253;-86
2022/08/09 01:37:12;;;;;;;6.92;3.05;;;;;;;16.68;100.00;98921.28;1772182;79;28022;-88
2022/08/09 01:39:41;;;;;;;5.72;2.72;;;;;;;16.63;100.00;98922.17;1748207;79;28148;-86
2022/08/09 01:42:08;;;;;;;7.97;3.35;;;;;;;16.60;100.00;98925.54;1746002;79;28019;-87
2022/08/09 01:44:37;;;;;;;4.95;3.08;;;;;;;16.59;100.00;98922.54;1746366;80;28177;-89
2022/08/09 01:47:04;;;;;;;6.85;4.33;;;;;;;16.61;100.00;98925.89;1756565;79;28091;-87
2022/08/09 01:49:34;;;;;;;5.50;2.70;;;;;;;16.64;100.00;98921.66;1747664;79;28176;-87
2022/08/09 01:52:04;;;;;;;4.85;3.00;;;;;;;16.61;100.00;98925.89;1757735;79;28019;-86
2022/08/09 01:54:40;;;;;;;5.67;2.80;;;;;;;16.55;100.00;98921.11;1759181;79;28023;-85
2022/08/09 01:57:12;;;;;;;4.95;2.90;;;;;;;16.48;100.00;98918.16;1764015;78;28136;-89
2022/08/09 01:59:43;;;;;;;5.67;2.85;;;;;;;16.52;100.00;98918.27;1756550;79;28188;-90
2022/08/09 02:02:14;;;;;;;5.35;2.72;;;;;;;16.54;100.00;98922.91;1779282;79;28086;-90
2022/08/09 02:07:12;;;;;;;5.75;3.27;;;;;;;16.45;100.00;98922.88;1766085;78;28179;-86
2022/08/09 02:09:45;;;;;;;5.30;2.80;;;;;;;16.50;100.00;98924.63;1754688;79;28114;-90
2022/08/09 02:12:13;;;;;;;5.12;2.80;;;;;;;16.51;100.00;98921.03;1729186;80;28076;-90
2022/08/09 02:14:42;;;;;;;5.17;3.05;;;;;;;16.49;100.00;98921.16;1730818;81;28226;-88
2022/08/09 02:17:10;;;;;;;4.25;3.02;;;;;;;16.51;100.00;98923.67;1746843;79;28206;-88
2022/08/09 02:19:37;;;;;;;5.80;2.98;;;;;;;16.53;100.00;98917.78;1734962;80;28259;-88
2022/08/09 02:22:10;;;;;;;4.42;2.37;;;;;;;16.56;100.00;98918.34;1761114;79;28133;-90
2022/08/09 02:24:38;;;;;;;4.65;3.25;;;;;;;16.57;100.00;98915.22;1784247;79;28281;-89
2022/08/09 02:27:07;;;;;;;4.28;2.70;;;;;;;16.54;100.00;98917.63;1774220;79;28072;-88
2022/08/09 02:29:40;;;;;;;5.55;2.98;;;;;;;16.47;100.00;98921.79;1761354;78;28045;-89
2022/08/09 02:32:10;;;;;;;5.62;3.42;;;;;;;16.47;100.00;98926.23;1768859;79;28074;-86
2022/08/09 02:34:38;;;;;;;6.42;3.00;;;;;;;16.42;100.00;98922.64;1774767;79;28063;-86
2022/08/09 02:37:08;;;;;;;6.55;3.08;;;;;;;16.30;100.00;98928.52;1753933;78;28013;-86
2022/08/09 02:39:38;;;;;;;4.58;2.95;;;;;;;16.16;100.00;98926.19;1766382;79;28087;-86
2022/08/09 02:42:15;;;;;;;4.55;3.30;;;;;;;16.05;100.00;98922.30;1769961;79;28025;-90
2022/08/09 02:44:45;;;;;;;5.78;3.30;;;;;;;16.00;100.00;98924.97;1770233;79;28150;-86
2022/08/09 02:47:14;;;;;;;5.45;2.95;;;;;;;16.02;100.00;98923.05;1763302;79;28167;-86
2022/08/09 02:49:46;;;;;;;9.25;3.30;;;;;;;15.98;100.00;98926.45;1774302;79;28097;-86
2022/08/09 02:52:21;;;;;;;5.78;3.27;;;;;;;15.97;100.00;98931.37;1750779;79;28137;-90
2022/08/09 02:54:50;;;;;;;6.12;3.33;;;;;;;15.95;100.00;98925.84;1766002;79;28109;-86
2022/08/09 02:57:19;;;;;;;7.97;3.12;;;;;;;15.99;100.00;98928.09;1756398;78;28223;-86
2022/08/09 02:59:48;;;;;;;4.28;2.98;;;;;;;16.03;100.00;98921.61;1759779;79;28116;-86
2022/08/09 03:02:16;;;;;;;4.75;3.00;;;;;;;16.07;100.00;98923.02;1698042;82;28161;-86
2022/08/09 03:04:44;;;;;;;4.55;3.02;;;;;;;16.02;100.00;98926.53;1699749;82;28069;-90
2022/08/09 03:07:12;;;;;;;8.48;3.33;;;;;;;15.94;100.00;98928.13;1713129;81;28013;-88
2022/08/09 03:09:40;;;;;;;6.60;3.08;;;;;;;15.81;100.00;98929.66;1707316;81;28100;-88
2022/08/09 03:12:10;;;;;;;4.50;3.20;;;;;;;15.77;100.00;98932.17;1713049;81;28053;-87
2022/08/09 03:14:37;;;;;;;6.03;3.02;;;;;;;15.68;100.00;98933.78;1701100;82;28233;-86
2022/08/09 03:17:08;;;;;;;5.22;2.83;;;;;;;15.63;100.00;98933.33;1703428;81;28120;-86
2022/08/09 03:19:35;;;;;;;4.97;3.02;;;;;;;15.65;100.00;98929.25;1682308;81;28094;-86
2022/08/09 03:22:04;;;;;;;7.65;3.45;;;;;;;15.72;100.00;98935.20;1701620;81;28045;-85
2022/08/09 03:24:30;;;;;;;8.03;3.45;;;;;;;15.69;100.00;98933.30;1716106;81;28121;-87
2022/08/09 03:26:58;;;;;;;5.67;3.30;;;;;;;15.72;100.00;98938.31;1736608;81;28113;-87
2022/08/09 03:29:27;;;;;;;5.58;3.37;;;;;;;15.79;100.00;98936.38;1719844;81;28197;-87
2022/08/09 03:31:55;;;;;;;5.80;3.25;;;;;;;15.95;100.00;98934.61;1698278;81;28115;-89
2022/08/09 03:34:21;;;;;;;4.90;2.70;;;;;;;16.09;100.00;98929.50;1713683;81;28216;-90
2022/08/09 03:36:49;;;;;;;5.42;3.20;;;;;;;16.15;100.00;98925.83;1747537;79;28099;-88
2022/08/09 03:39:15;;;;;;;6.83;3.22;;;;;;;16.24;100.00;98933.00;1770692;79;28152;-88
2022/08/09 03:41:41;;;;;;;6.60;3.22;;;;;;;16.31;100.00;98932.80;1762215;79;43099;-88
2022/08/09 03:44:07;;;;;;;8.60;4.53;;;;;;;16.37;100.00;98933.25;1755467;78;28105;-88
2022/08/09 03:46:33;;;;;;;6.22;3.20;;;;;;;16.39;100.00;98932.64;1768946;79;28147;-86
2022/08/09 03:49:01;;;;;;;4.58;2.80;;;;;;;16.45;100.00;98932.96;1774942;79;28204;-88
2022/08/09 03:51:29;;;;;;;5.80;3.17;;;;;;;16.48;100.00;98930.04;1731564;79;28109;-89
2022/08/09 03:53:58;;;;;;;5.95;3.27;;;;;;;16.45;100.00;98922.88;1762248;79;28161;-87
2022/08/09 03:56:24;;;;;;;11.95;3.90;;;;;;;16.37;100.00;98924.00;1763866;79;28063;-86
2022/08/09 03:58:51;;;;;;;5.60;2.90;;;;;;;16.29;100.00;98916.75;1758164;78;28164;-86
2022/08/09 04:01:17;;;;;;;5.10;2.83;;;;;;;16.28;100.00;98921.20;1761793;79;28123;-86
2022/08/09 04:03:44;;;;;;;4.42;3.05;;;;;;;16.20;100.00;98919.67;1753085;79;28059;-86
2022/08/09 04:06:11;;;;;;;5.85;3.08;;;;;;;16.19;100.00;98921.98;1739158;79;28074;-88
2022/08/09 04:08:37;;;;;;;7.78;3.08;;;;;;;16.30;100.00;98926.36;1752081;79;28247;-86
2022/08/09 04:11:06;;;;;;;4.72;2.80;;;;;;;16.43;100.00;98930.08;1761945;79;28091;-86
2022/08/09 04:13:32;;;;;;;6.97;3.40;;;;;;;16.51;100.00;98924.99;1752395;79;28129;-88
2022/08/09 04:15:58;;;;;;;4.72;2.52;;;;;;;16.55;100.00;98930.36;1759928;79;43104;-86
2022/08/09 04:18:24;;;;;;;6.75;2.72;;;;;;;16.54;100.00;98933.96;1757945;79;43130;-86
2022/08/09 04:20:50;;;;;;;4.45;3.00;;;;;;;16.48;100.00;98933.16;1767066;79;43109;-88
2022/08/09 04:23:16;;;;;;;5.37;3.30;;;;;;;16.43;100.00;98931.41;1750700;79;28136;-86
2022/08/09 04:25:42;;;;;;;5.62;3.25;;;;;;;16.33;100.00;98929.56;1747848;79;28236;-86
2022/08/09 04:28:09;;;;;;;5.40;3.15;;;;;;;16.22;100.00;98933.59;1763716;79;28154;-89
2022/08/09 04:30:35;;;;;;;5.33;3.35;;;;;;;16.12;100.00;98934.03;1763157;79;28095;-89
2022/08/09 04:33:01;;;;;;;5.97;3.27;;;;;;;16.07;100.00;98934.06;1752758;78;28240;-86
2022/08/09 04:35:27;;;;;;;5.92;3.08;;;;;;;16.02;100.00;98937.09;1740717;79;43109;-85
2022/08/09 04:37:54;;;;;;;6.37;3.10;;;;;;;16.08;100.00;98939.70;1767875;79;28106;-86
2022/08/09 04:40:20;;;;;;;5.20;2.95;;;;;;;16.17;100.00;98941.55;1759356;79;28232;-88
2022/08/09 04:42:47;;;;;;;5.97;2.87;;;;;;;16.26;100.00;98943.41;1738065;80;28306;-86
2022/08/09 04:45:13;;;;;;;6.92;3.22;;;;;;;16.39;100.00;98941.89;1756701;79;28035;-86
2022/08/09 04:47:39;;;;;;;6.65;3.37;;;;;;;16.42;100.00;98950.89;1757787;78;28012;-86
2022/08/09 04:50:07;;;;;;;6.75;3.47;;;;;;;16.40;100.00;98952.81;1756792;79;28320;-87
2022/08/09 04:52:33;;;;;;;6.53;3.02;;;;;;;16.34;100.00;98950.21;1764591;79;28063;-87
2022/08/09 04:55:01;;;;;;;8.53;3.17;;;;;;;16.27;100.00;98951.21;1718000;80;28166;-87
2022/08/09 04:57:27;;;;;;;4.10;3.02;;;;;;;16.23;100.00;98955.09;1690060;82;28102;-87
2022/08/09 04:59:54;;;;;;;7.62;3.50;;;;;;;16.18;100.00;98956.44;1756755;78;28055;-86
2022/08/09 05:02:23;;;;;;;6.00;3.30;;;;;;;16.16;100.00;98953.92;1769606;79;28101;-88
2022/08/09 05:04:49;;;;;;;7.25;3.10;;;;;;;16.19;100.00;98956.32;1768724;78;27991;-89
2022/08/09 05:07:16;;;;;;;7.97;2.90;;;;;;;16.17;100.00;98954.28;1760111;78;28105;-87
2022/08/09 05:09:42;;;;;;;5.50;3.17;;;;;;;16.16;100.00;98953.08;1763846;79;28223;-86
2022/08/09 05:12:09;;;;;;;7.37;3.40;;;;;;;16.12;100.00;98949.87;1764152;78;28098;-85
2022/08/09 05:14:45;;;;;;;6.58;3.37;;;;;;;16.09;100.00;98947.47;1777224;78;28164;-86
2022/08/09 05:17:11;;;;;;;6.92;3.20;;;;;;;16.07;100.00;98954.70;1736508;80;28110;-86
2022/08/09 05:19:37;;;;;;;5.70;3.62;;;;;;;16.07;100.00;98952.55;1720287;80;28137;-86
2022/08/09 05:22:03;;;;;;;3.75;2.67;;;;;;;16.09;100.00;98959.36;1727639;80;44972;-87
2022/08/09 05:24:31;;;;;;;5.55;3.02;;;;;;;16.10;100.00;98964.16;1675275;82;28067;-87
2022/08/09 05:26:57;;;;;;;6.80;3.40;;;;;;;16.08;100.00;98962.98;1754176;78;28076;-90
2022/08/09 05:29:26;;;;;;;7.62;2.62;;;;;;;16.09;100.00;98962.51;1743754;80;28057;-90
2022/08/09 05:32:01;;;;;;;6.10;2.95;;;;;;;16.14;100.00;98970.40;1736256;80;28235;-90
2022/08/09 05:34:30;;;;;;;5.05;2.62;;;;;;;16.20;100.00;98965.08;1745536;80;28092;-90
2022/08/09 05:36:57;;;;;;;8.20;3.10;;;;;;;16.24;100.00;98963.38;1763930;78;28085;-86
2022/08/09 05:39:23;;;;;;;6.25;2.62;;;;;;;16.32;100.00;98961.38;1732847;79;28094;-87
2022/08/09 05:41:50;;;;;;;5.95;2.87;;;;;;;16.41;100.00;98965.06;1737389;79;28012;-87
2022/08/09 05:44:17;;;;;;;3.70;2.67;;;;;;;16.46;100.00;98970.79;1751439;79;28059;-90
2022/08/09 05:46:43;;;;;;;3.85;2.30;;;;;;;16.49;100.00;98970.03;1751690;78;28238;-86
2022/08/09 05:49:10;;;;;;;7.05;2.25;;;;;;;16.54;100.00;98971.80;1743730;79;28019;-87
2022/08/09 05:51:36;;;;;;;8.38;2.08;;;;;;;16.59;100.00;98972.75;1708177;80;28067;-90
2022/08/09 05:54:03;;;;;;;3.98;2.20;;;;;;;16.68;100.00;98970.66;1691057;82;28094;-90
2022/08/09 05:56:29;;;;;;;3.02;2.00;;;;;;;16.77;100.00;98974.30;1730242;79;28001;-89
2022/08/09 05:58:58;;;;;;;5.80;1.98;;;;;;;16.84;100.00;98973.64;1713312;82;43094;-88
2022/08/09 06:01:27;;;;;;;3.33;2.10;;;;;;;16.96;100.00;98975.23;1767273;79;28188;-89
2022/08/09 06:03:55;;;;;;;5.10;2.40;;;;;;;17.09;100.00;98978.94;1772845;79;28097;-87
2022/08/09 06:06:22;;;;;;;3.25;1.98;;;;;;;17.20;100.00;98982.80;1769023;79;28098;-88
2022/08/09 06:08:50;;;;;;;3.70;1.90;;;;;;;17.32;100.00;98976.43;1758160;78;28074;-87
2022/08/09 06:11:30;;;;;;;3.60;1.77;;;;;;;17.42;100.00;98975.95;1750429;79;28093;-87
2022/08/09 06:13:57;;;;;;;4.92;2.10;;;;;;;17.52;100.00;98979.92;1735950;80;40025;-88
2022/08/09 06:16:25;;;;;;;2.27;1.60;;;;;;;17.56;100.00;98980.84;1734261;80;28154;-88
2022/08/09 06:18:55;;;;;;;3.40;1.80;;;;;;;17.63;100.00;98975.86;1748184;79;28106;-88
2022/08/09 06:21:24;;;;;;;2.52;1.50;;;;;;;17.71;100.00;98973.86;1746066;79;28129;-87
2022/08/09 06:23:51;;;;;;;4.83;2.00;;;;;;;17.74;100.00;98974.41;1725863;80;28238;-87
2022/08/09 06:26:19;;;;;;;3.70;1.80;;;;;;;17.80;100.00;98977.83;1688941;82;28242;-87
2022/08/09 06:28:50;;;;;;;5.65;1.87;;;;;;;17.85;100.00;98983.54;1698379;83;28159;-87
2022/08/09 06:31:16;;;;;;;3.83;1.60;;;;;;;17.90;100.00;98976.50;1712004;81;27992;-87
2022/08/09 06:33:43;;;;;;;8.23;2.12;;;;;;;17.96;100.00;98978.59;1734527;81;28029;-88
2022/08/09 06:36:09;;;;;;;4.40;1.62;;;;;;;18.01;100.00;98975.52;1734031;80;28079;-88
2022/08/09 06:38:44;;;;;;;4.67;1.70;;;;;;;18.06;100.00;98983.88;1740502;80;28100;-88
2022/08/09 06:41:06;;;;;;;2.70;1.53;;;;;;;18.13;100.00;98983.66;1741962;79;28164;-90
2022/08/09 06:43:32;;;;;;;4.92;1.67;;;;;;;18.19;100.00;98990.56;1773626;78;43050;-91
2022/08/09 06:45:59;;;;;;;3.77;2.20;;;;;;;18.24;100.00;98983.02;1769636;79;28001;-87
2022/08/09 06:48:25;;;;;;;3.65;1.50;;;;;;;18.33;100.00;98990.11;1779025;79;28234;-87
2022/08/09 06:50:55;;;;;;;4.22;1.52;;;;;;;18.42;100.00;98988.44;1774468;78;28307;-87
2022/08/09 06:53:21;;;;;;;2.87;1.67;;;;;;;18.49;100.00;98986.90;1768307;78;28138;-87
2022/08/09 06:55:47;;;;;;;2.90;1.57;;;;;;;18.56;100.00;98987.16;1768269;79;28113;-87
2022/08/09 06:58:13;;;;;;;2.92;1.40;;;;;;;18.63;100.00;98994.90;1759437;79;27992;-87
2022/08/09 07:00:40;;;;;;;3.10;1.20;;;;;;;18.68;100.00;98994.81;1765215;79;28130;-87
2022/08/09 07:03:06;;;;;;;2.75;1.45;;;;;;;18.76;100.00;98996.23;1727282;80;28129;-87
2022/08/09 07:05:32;;;;;;;2.47;0.80;;;;;;;18.83;100.00;98991.19;1766572;78;28114;-88
2022/08/09 07:07:58;;;;;;;1.90;1.15;;;;;;;18.92;100.00;98991.66;1752710;79;28093;-88
2022/08/09 07:10:24;;;;;;;3.15;1.00;;;;;;;18.97;100.00;98990.73;1736026;78;28074;-88
2022/08/09 07:12:51;;;;;;;3.40;0.98;;;;;;;19.07;100.00;98989.35;1765747;78;28033;-88
2022/08/09 07:15:17;;;;;;;4.00;1.05;;;;;;;19.15;100.00;98989.44;1760299;79;28079;-88
2022/08/09 07:17:43;;;;;;;4.25;1.10;;;;;;;19.22;100.00;98998.00;1751529;78;28092;-87
2022/08/09 07:20:10;;;;;;;2.55;0.90;;;;;;;19.29;100.00;98994.75;1715225;81;28257;-88
2022/08/09 07:22:37;;;;;;;3.27;0.80;;;;;;;19.34;100.00;99000.45;1755637;80;28110;-86
2022/08/09 07:25:04;;;;;;;3.40;1.10;;;;;;;19.38;100.00;98997.34;1755648;79;28130;-86
2022/08/09 07:27:30;;;;;;;3.00;1.12;;;;;;;19.41;100.00;98997.06;1767937;79;28105;-86
2022/08/09 07:29:57;;;;;;;2.30;1.00;;;;;;;19.50;100.00;99002.83;1747116;79;28125;-87
2022/08/09 07:32:23;;;;;;;2.27;1.10;;;;;;;19.55;100.00;99004.54;1699206;82;28258;-87
2022/08/09 07:34:51;;;;;;;2.60;0.90;;;;;;;19.66;100.00;99006.64;1716301;81;28238;-86
2022/08/09 07:37:17;;;;;;;3.15;1.27;;;;;;;19.72;100.00;99012.67;1701033;81;28187;-87
2022/08/09 07:39:44;;;;;;;2.02;1.07;;;;;;;19.78;100.00;99010.75;1691568;81;28099;-87
2022/08/09 07:42:16;;;;;;;1.40;0.88;;;;;;;19.80;100.00;99016.76;1703386;81;28092;-87
2022/08/09 07:44:45;;;;;;;5.25;1.15;;;;;;;19.83;100.00;99012.45;1724609;79;28141;-87
2022/08/09 07:47:12;;;;;;;1.67;0.93;;;;;;;19.87;100.00;99015.14;1740025;79;28158;-87
2022/08/09 07:49:38;;;;;;;4.22;1.20;;;;;;;19.92;100.00;99014.19;1754024;79;28129;-87
2022/08/09 07:52:04;;;;;;;6.05;1.10;;;;;;;20.01;100.00;99020.78;1751276;79;28200;-87
2022/08/09 07:54:30;;;;;;;3.47;1.12;;;;;;;20.07;100.00;99008.70;1751602;78;28122;-87
2022/08/09 07:56:57;;;;;;;2.05;1.10;;;;;;;20.11;100.00;99004.75;1773321;79;28104;-89
2022/08/09 07:59:22;;;;;;;1.65;0.98;;;;;;;20.15;100.00;99011.91;1739538;79;28212;-90
2022/08/09 08:01:54;;;;;;;2.50;0.80;;;;;;;20.19;100.00;99007.45;1765755;78;28039;-91
2022/08/09 08:04:21;;;;;;;1.72;0.98;;;;;;;20.27;100.00;99006.21;1758232;79;28064;-89
2022/08/09 08:06:53;;;;;;;1.30;0.78;;;;;;;20.33;100.00;99016.27;1721111;80;28021;-90
2022/08/09 08:09:20;;;;;;;0.85;0.70;;;;;;;20.40;100.00;99013.30;1763813;79;28125;-89
2022/08/09 08:11:46;;;;;;;4.10;1.10;;;;;;;20.44;100.00;99006.70;1745866;79;28130;-89
2022/08/09 08:14:12;;;;;;;4.05;0.95;;;;;;;20.45;100.00;99008.38;1742533;80;28102;-89
2022/08/09 08:16:40;;;;;;;1.60;1.10;;;;;;;20.51;100.00;99019.38;1760806;79;28145;-90
2022/08/09 08:19:06;;;;;;;1.52;1.02;;;;;;;20.56;100.00;99022.41;1755381;79;28113;-89
2022/08/09 08:21:32;;;;;;;2.67;1.05;;;;;;;20.61;100.00;99013.46;1764423;78;28040;-89
2022/08/09 08:23:58;;;;;;;1.47;1.10;;;;;;;20.68;100.00;99019.31;1762363;79;28024;-90
2022/08/09 08:26:27;;;;;;;1.65;0.90;;;;;;;20.80;100.00;99027.87;1767705;79;28212;-88
2022/08/09 08:28:53;;;;;;;1.82;1.02;;;;;;;20.85;99.27;99022.91;1740201;79;28156;-89
2022/08/09 08:31:19;;;;;;;3.95;1.10;;;;;;;20.91;98.55;99027.60;1752377;78;28068;-88
2022/08/09 08:33:45;;;;;;;1.67;1.00;;;;;;;20.94;97.49;99024.64;1769951;78;28024;-88
2022/08/09 08:36:12;;;;;;;1.87;0.80;;;;;;;20.98;96.39;99030.47;1777822;78;28087;-89
2022/08/09 08:38:38;;;;;;;1.17;0.93;;;;;;;21.03;95.67;99023.68;1755944;78;28099;-89
2022/08/09 08:41:05;;;;;;;2.15;0.85;;;;;;;21.13;95.43;99031.53;1729107;80;28172;-88
2022/08/09 08:43:31;;;;;;;1.67;0.90;;;;;;;21.21;94.81;99029.80;1698586;82;28091;-89
2022/08/09 08:46:03;;;;;;;1.72;0.80;;;;;;;21.20;93.25;99030.78;1699653;81;28093;-89
2022/08/09 08:48:31;;;;;;;2.47;1.00;;;;;;;21.19;92.28;99030.44;1711464;81;28058;-88
2022/08/09 08:50:58;;;;;;;1.22;0.70;;;;;;;21.24;91.49;99031.29;1717496;80;28024;-90
2022/08/09 08:53:25;;;;;;;2.25;0.95;;;;;;;21.28;90.58;99032.63;1716834;80;28172;-90
2022/08/09 08:55:51;;;;;;;3.52;0.93;;;;;;;21.34;90.13;99025.83;1694410;81;28019;-89
2022/08/09 08:58:18;;;;;;;0.93;0.90;;;;;;;21.38;89.18;99031.19;1692239;82;28097;-89
2022/08/09 09:00:44;;;;;;;3.52;1.20;;;;;;;21.43;88.47;99024.88;1707548;82;28315;-89
2022/08/09 09:03:13;;;;;;;1.07;0.80;;;;;;;21.44;87.39;99026.03;1708094;81;28069;-89
2022/08/09 09:05:40;;;;;;;2.67;1.07;;;;;;;21.54;87.12;99025.92;1692705;82;28275;-87
2022/08/09 09:08:11;;;;;;;1.75;0.70;;;;;;;21.62;86.60;99020.59;1747379;79;28172;-88
2022/08/09 09:10:39;;;;;;;1.40;0.78;;;;;;;21.65;85.77;99034.94;1736930;80;41808;-88
2022/08/09 09:13:07;;;;;;;2.02;0.90;;;;;;;21.67;85.04;99032.93;1760209;79;28188;-88
2022/08/09 09:15:34;;;;;;;1.67;0.70;;;;;;;21.72;84.53;99034.61;1778792;79;28091;-88
2022/08/09 09:18:00;;;;;;;3.75;0.82;;;;;;;21.78;83.83;99035.29;1761812;79;28244;-87
2022/08/09 09:20:32;;;;;;;0.60;0.60;;;;;;;21.84;83.07;99033.80;1769977;79;28151;-86
2022/08/09 09:22:59;;;;;;;3.98;0.80;;;;;;;21.86;82.36;99031.81;1764565;79;28282;-87
2022/08/09 09:25:34;;;;;;;2.37;0.80;;;;;;;21.92;81.54;99035.16;1741801;79;28114;-87
2022/08/09 09:28:02;;;;;;;3.37;0.82;;;;;;;21.96;80.53;99040.03;1771944;79;28062;-87
2022/08/09 09:30:29;;;;;;;1.00;0.60;;;;;;;21.96;79.25;99033.36;1744136;79;28027;-87
2022/08/09 09:33:10;;;;;;;5.17;0.70;;;;;;;21.98;78.37;99033.20;1755047;78;28221;-87
2022/08/09 09:35:56;;;;;;;1.52;0.60;;;;;;;21.97;77.35;99033.70;1755378;79;28146;-87
2022/08/09 09:38:41;;;;;;;2.27;0.62;;;;;;;21.94;75.84;99041.14;1758473;78;28263;-86
2022/08/09 09:41:12;;;;;;;7.35;1.17;;;;;;;21.97;74.96;99039.53;1756152;78;28112;-87
2022/08/09 09:43:38;;;;;;;2.22;0.62;;;;;;;21.97;74.09;99034.20;1752189;79;28194;-86
2022/08/09 09:46:04;;;;;;;1.75;0.60;;;;;;;22.02;73.51;99037.20;1764265;79;28194;-87
2022/08/09 09:48:31;;;;;;;1.10;0.72;;;;;;;22.07;73.17;99032.21;1776426;79;28045;-87
2022/08/09 09:50:58;;;;;;;1.25;0.60;;;;;;;22.17;72.79;99028.04;1765448;79;28042;-89
2022/08/09 09:53:26;;;;;;;3.87;0.70;;;;;;;22.26;72.55;99036.37;1758809;79;28030;-89
2022/08/09 09:55:55;;;;;;;2.10;0.70;;;;;;;22.37;72.66;99030.70;1765719;78;28164;-85
2022/08/09 09:58:23;;;;;;;1.20;0.70;;;;;;;22.45;72.40;99025.37;1759114;78;28108;-85
2022/08/09 10:00:52;;;;;;;1.67;0.70;;;;;;;22.55;72.30;99028.70;1757149;78;28204;-85
2022/08/09 10:03:38;;;;;;;0.98;0.50;;;;;;;22.64;72.09;99033.02;1763617;79;27980;-85
2022/08/09 10:06:04;;;;;;;1.00;0.70;;;;;;;22.75;71.95;99023.35;1769109;78;28110;-86
2022/08/09 10:08:30;;;;;;;1.25;0.60;;;;;;;22.75;70.56;99019.34;1767362;78;28046;-90
2022/08/09 10:10:57;;;;;;;1.75;0.65;;;;;;;22.75;69.23;99022.02;1784827;78;28054;-88
2022/08/09 10:13:23;;;;;;;1.15;0.70;;;;;;;22.79;68.52;99015.36;1779894;79;28183;-88
2022/08/09 10:15:49;;;;;;;2.60;0.50;;;;;;;22.84;67.70;99021.52;1767079;79;28117;-88
2022/08/09 10:18:28;;;;;;;2.47;0.60;;;;;;;22.80;66.58;99010.33;1744684;79;28031;-89
2022/08/09 10:21:10;;;;;;;2.25;0.88;;;;;;;22.81;65.99;99017.34;1763212;78;28144;-88
2022/08/09 10:23:36;;;;;;;3.17;0.85;;;;;;;22.79;65.10;99016.70;1763947;78;28036;-87
2022/08/09 10:26:03;;;;;;;1.55;0.85;;;;;;;22.80;64.55;99008.19;1773182;79;28129;-88
2022/08/09 10:28:32;;;;;;;2.30;0.70;;;;;;;22.86;64.27;99013.66;1772078;78;28075;-89
2022/08/09 10:30:59;;;;;;;1.72;0.85;;;;;;;22.84;63.23;99016.18;1766907;78;28205;-87
2022/08/09 10:33:25;;;;;;;3.33;0.78;;;;;;;22.82;62.58;99012.84;1770135;79;28096;-88
2022/08/09 10:35:52;;;;;;;1.20;0.85;;;;;;;22.91;62.70;99012.64;1765869;79;28261;-88
2022/08/09 10:38:19;;;;;;;1.10;0.60;;;;;;;22.95;62.17;99007.80;1757170;79;28096;-87
2022/08/09 10:40:46;;;;;;;0.60;0.50;;;;;;;22.98;61.77;99018.13;1763258;79;28113;-87
2022/08/09 10:43:12;;;;;;;1.75;0.62;;;;;;;22.99;61.27;99013.13;1758488;79;28102;-85
2022/08/09 10:45:44;;;;;;;2.33;0.70;;;;;;;23.01;60.79;99008.95;1768092;79;28115;-88
2022/08/09 10:48:15;;;;;;;4.78;0.88;;;;;;;23.05;60.83;99004.93;1778534;79;28269;-88
2022/08/09 10:53:36;;;;;;;2.27;0.75;;;;;;;23.05;60.05;99003.09;1743892;80;28267;-89
2022/08/09 10:56:18;;;;;;;2.67;0.80;;;;;;;23.06;59.63;98997.26;1743678;79;28266;-87
2022/08/09 10:58:44;;;;;;;1.75;1.00;;;;;;;23.05;59.26;99001.77;1739606;80;28111;-87
2022/08/09 11:01:33;;;;;;;1.92;0.70;;;;;;;23.01;58.59;98998.28;1728541;80;28124;-87
2022/08/09 11:04:17;;;;;;;1.40;0.55;;;;;;;23.02;58.33;98997.28;1706629;80;28154;-89
2022/08/09 11:06:44;;;;;;;0.70;0.60;;;;;;;23.05;58.23;98995.59;1746721;80;27989;-86
2022/08/09 11:09:13;;;;;;;2.05;0.50;;;;;;;23.21;58.74;98998.19;1729137;80;28082;-88
2022/08/09 11:12:03;;;;;;;1.27;0.70;;;;;;;23.35;59.07;98990.77;1714292;80;28059;-90
2022/08/09 11:14:43;;;;;;;2.27;0.60;;;;;;;23.40;58.92;98997.78;1706332;81;28130;-87
2022/08/09 11:17:26;;;;;;;1.57;0.80;;;;;;;23.42;58.59;98989.57;1699710;82;28147;-88
2022/08/09 11:20:06;;;;;;;3.35;0.72;;;;;;;23.48;58.44;98984.40;1691719;81;28077;-89
2022/08/09 11:22:43;;;;;;;1.27;0.70;;;;;;;23.52;57.94;98984.87;1717090;81;28039;-88
2022/08/09 11:25:14;;;;;;;1.45;0.42;;;;;;;23.47;57.11;98981.39;1730000;80;28123;-88
2022/08/09 11:27:49;;;;;;;1.40;0.70;;;;;;;23.50;57.02;98977.55;1733098;80;28094;-88
2022/08/09 11:30:25;;;;;;;1.22;0.60;;;;;;;23.61;56.99;98978.48;1720102;80;28239;-87
2022/08/09 11:33:19;;;;;;;1.92;0.62;;;;;;;23.68;56.72;98977.59;1729602;80;28171;-87
2022/08/09 11:35:48;;;;;;;1.70;0.50;;;;;;;23.68;56.48;98977.59;1728965;81;28162;-85
2022/08/09 11:38:17;;;;;;;2.60;0.70;;;;;;;23.65;56.12;98969.94;1725882;80;28101;-86
2022/08/09 11:40:43;;;;;;;1.27;0.80;;;;;;;23.66;55.60;98975.61;1726862;80;28007;-89